x

Buzzards Bay, Ma (buzm3) Weather Station

7:00am - Sun 4th Dec 2016 All times are EST. -5 hours from GMT.

  • Wind
    17mph, 20mph gusts
  • Air Temp 36°f
  • Sea Pressure 1021.3mb
  • Buzzards Bay, Ma
  • Buzzards Bay, Ma

More Historic Weather Station data

Upgrade to MSW Pro to gain access to the past 30 days of data for over 8000 Wavebouys and Weather Stations around the globe.

Join Pro

Comparision Forecast

View Surf forecast
   
Sun 12/04 7:00am 17 20 mph 1021.3mb 36f
6:00am 20 22 mph 1021mb 36f
5:00am 24 26 mph 1020.5mb 37f
4:00am 23 28 mph 1020.6mb 36f
3:00am 23 25 mph 1020.4mb 37f
2:00am 24 28 mph 1020.1mb 37f
1:00am 20 22 mph 1019.3mb 37f
12:00am 22 24 mph 1018.9mb 38f
Sat 12/03 11:00pm 22 25 mph 1017.9mb 39f
10:00pm 29 33 mph 1017mb 40f
9:00pm 28 30 mph 1017mb 41f
8:00pm 26 32 mph 1016.9mb 42f
7:00pm 24 28 mph 1016.6mb 42f
6:00pm 26 30 mph 1016.2mb 43f
5:00pm 25 29 mph 1015mb 43f
4:00pm 26 30 mph 1013.9mb 43f
3:00pm 33 37 mph 1013mb 44f
2:00pm 30 33 mph 1012mb 45f
1:00pm 24 26 mph 1011.9mb 44f
12:00pm 28 31 mph 1012.2mb 44f
11:00am 25 28 mph 1012mb 43f
10:00am 26 30 mph 1012.1mb 42f
9:00am 30 34 mph 1011.4mb 41f
8:00am 29 32 mph 1011mb 42f
7:00am 33 37 mph 1010.3mb 41f
6:00am 36 40 mph 1009.7mb 41f
5:00am 33 39 mph 1009.3mb 41f
4:00am 30 34 mph 1009mb 42f
3:00am 33 38 mph 1008.9mb 43f
2:00am 28 31 mph 1008.8mb 43f
1:00am 34 40 mph 1008mb 44f
12:00am 31 34 mph 1008.4mb 44f
Fri 12/02 11:00pm 30 33 mph 1008.8mb 45f
10:00pm 29 33 mph 1008.5mb 46f
9:00pm 28 31 mph 1008.3mb 47f
8:00pm 24 28 mph 1008.7mb 48f
7:00pm 20 22 mph 1009.2mb 49f
6:00pm 21 24 mph 1009.1mb 49f
5:00pm 22 25 mph 1009mb 49f
4:00pm 14 15 mph 1009mb 49f
3:00pm 18 20 mph 1008.7mb 49f
2:00pm 22 24 mph 1008.2mb 49f
1:00pm 18 21 mph 1008.7mb 49f
12:00pm 16 18 mph 1009.3mb 47f
11:00am 21 22 mph 1009.8mb 45f
10:00am 22 24 mph 1010.4mb 44f
9:00am 26 30 mph 1010.2mb 44f
8:00am 25 28 mph 1010.2mb 43f
7:00am 24 26 mph 1009.7mb 43f
6:00am 26 30 mph 1009.6mb 43f
5:00am 30 33 mph 1008.9mb 44f
4:00am 32 34 mph 1008.5mb 44f
3:00am 33 37 mph 1008.2mb 44f
2:00am 26 30 mph 1008.4mb 45f
1:00am 24 30 mph 1007.7mb 45f
12:00am 29 32 mph 1007.1mb 46f
Thu 12/01 11:00pm 23 26 mph 1007mb 47f
10:00pm 33 36 mph 1006.2mb 47f
9:00pm 28 32 mph 1005.6mb 49f
8:00pm 29 31 mph 1004.7mb 49f
7:00pm 21 22 mph 1004.1mb 50f
6:00pm 24 26 mph 1003.3mb 51f
5:00pm 20 22 mph 1002.6mb 53f
4:00pm 21 23 mph 1001.6mb 53f
3:00pm 24 26 mph 1000.7mb 53f
2:00pm 24 25 mph 1000.2mb 53f
12:00pm 17 18 mph 1000.3mb 53f
11:00am 20
mph
1000.4mb 52f
10:00am 23 24 mph 1000.4mb 52f
9:00am 21
mph
999.4mb 53f
8:00am 20 21 mph 998.1mb 55f
7:00am 23 25 mph 997.5mb 56f
6:00am 28 30 mph 997.4mb 58f
5:00am 29 31 mph 997.3mb 58f
4:00am 34 37 mph 998.1mb 59f
3:00am 24 26 mph 998.9mb 57f
2:00am 16 17 mph 1001.5mb 57f
1:00am 10 13 mph 1003mb 53f
12:00am 22 24 mph 1004.5mb 50f
Wed 11/30 11:00pm 23 25 mph 1006.9mb 50f
10:00pm 25 29 mph 1008.6mb 50f
9:00pm 32 34 mph 1009.7mb 50f
8:00pm 26 28 mph 1011.6mb 49f
7:00pm 30 31 mph 1011.4mb 49f
6:00pm 26 29 mph 1012.8mb 48f
5:00pm 23 25 mph 1014.1mb 48f
4:00pm 21 23 mph 1013.8mb 49f
3:00pm 22 24 mph 1013.3mb 49f
2:00pm 18 20 mph 1014.9mb 49f